Terminal Aerodrome Forecast
Issued by NWS Austin/San Antonio, TX

Home | Current Version | Previous Version | Text Only | Print | Product List | Glossary On
Versions: 1 2 3 4 5 6 7 8 9 10 11 12 13 14 15 16 17 18 19 20
000
FTUS44 KEWX 251129
TAFSAT
TAF
KSAT 251129Z 2512/2618 19008KT P6SM BKN012
     FM251400 17006KT P6SM BKN015
     FM251600 16008KT P6SM SCT040 BKN250
     FM260700 13006KT P6SM BKN012=

USA.gov is the U.S. government's official web portal to all federal, state and local government web resources and services.